Time;durP1;ratioP1;P1;durP2;ratioP2;P2;SDS_P1;SDS_P2;PMS_P1;PMS_P2;Temp;Humidity;BMP_temperature;BMP_pressure;BME280_temperature;BME280_humidity;BME280_pressure;Samples;Min_cycle;Max_cycle;Signal;HPM_P1;HPM_P2
2021/07/26 00:00:21;;;;;;;14.45;9.60;;;16.80;99.90;;;;;;5054602;28;20048;-69
2021/07/26 00:02:46;;;;;;;14.00;8.88;;;16.80;99.90;;;;;;5054575;28;20410;-69
2021/07/26 00:05:12;;;;;;;14.60;9.40;;;16.70;99.90;;;;;;5054245;28;20040;-69
2021/07/26 00:07:38;;;;;;;15.75;9.63;;;16.70;99.90;;;;;;5054231;28;20498;-69
2021/07/26 00:10:05;;;;;;;18.70;10.18;;;16.70;99.90;;;;;;5054487;28;20025;-69
2021/07/26 00:12:32;;;;;;;14.52;9.38;;;16.70;99.90;;;;;;5054313;28;20383;-69
2021/07/26 00:14:59;;;;;;;16.65;9.52;;;16.70;99.90;;;;;;5054391;28;20458;-69
2021/07/26 00:17:25;;;;;;;13.80;9.38;;;16.70;99.90;;;;;;5054062;28;20130;-69
2021/07/26 00:19:51;;;;;;;16.20;9.73;;;16.60;99.90;;;;;;5054292;28;20013;-69
2021/07/26 00:22:17;;;;;;;15.68;9.02;;;16.60;99.90;;;;;;5052513;28;20466;-69
2021/07/26 00:24:42;;;;;;;11.98;8.70;;;16.60;99.90;;;;;;5053941;28;20553;-69
2021/07/26 00:27:08;;;;;;;14.80;8.20;;;16.60;99.90;;;;;;5054182;28;20032;-69
2021/07/26 00:29:33;;;;;;;12.45;9.23;;;16.60;99.90;;;;;;5053630;28;20033;-69
2021/07/26 00:31:59;;;;;;;10.60;8.48;;;16.60;99.90;;;;;;5054051;28;20032;-69
2021/07/26 00:34:27;;;;;;;12.55;8.95;;;16.60;99.90;;;;;;5052923;28;20024;-69
2021/07/26 00:36:56;;;;;;;10.65;8.60;;;16.50;99.90;;;;;;5053060;28;20053;-69
2021/07/26 00:39:25;;;;;;;13.55;8.95;;;16.50;99.90;;;;;;5053753;28;20078;-69
2021/07/26 00:41:51;;;;;;;11.95;8.77;;;16.50;99.90;;;;;;5053994;28;20021;-69
2021/07/26 00:44:19;;;;;;;15.45;9.27;;;16.40;99.90;;;;;;5052860;28;20021;-69
2021/07/26 00:46:45;;;;;;;14.18;8.80;;;16.40;99.90;;;;;;5052756;28;20017;-69
2021/07/26 00:49:14;;;;;;;12.40;8.77;;;16.40;99.90;;;;;;5052305;28;20029;-69
2021/07/26 00:51:42;;;;;;;13.60;8.77;;;16.40;99.90;;;;;;5051951;28;20045;-69
2021/07/26 00:54:08;;;;;;;11.57;8.50;;;16.40;99.90;;;;;;5053204;28;20029;-69
2021/07/26 00:56:35;;;;;;;11.02;8.32;;;16.40;99.90;;;;;;5053853;28;20032;-69
2021/07/26 00:59:01;;;;;;;14.50;8.88;;;16.40;99.90;;;;;;5053280;28;20025;-69
2021/07/26 01:01:27;;;;;;;16.80;9.90;;;16.40;99.90;;;;;;5053832;28;20031;-69
2021/07/26 01:03:52;;;;;;;14.00;8.85;;;16.40;99.90;;;;;;5051968;28;20120;-69
2021/07/26 01:06:19;;;;;;;12.65;8.73;;;16.40;99.90;;;;;;5053723;28;20033;-69
2021/07/26 01:08:45;;;;;;;13.07;8.15;;;16.30;99.90;;;;;;5053466;28;20059;-68
2021/07/26 01:11:11;;;;;;;12.18;9.00;;;16.30;99.90;;;;;;5053404;28;20017;-69
2021/07/26 01:13:37;;;;;;;11.07;8.13;;;16.30;99.90;;;;;;5053614;28;20051;-69
2021/07/26 01:16:04;;;;;;;12.20;7.85;;;16.30;99.90;;;;;;5052688;28;20379;-69
2021/07/26 01:18:30;;;;;;;12.77;8.68;;;16.30;99.90;;;;;;5053563;28;20020;-69
2021/07/26 01:21:08;;;;;;;13.43;8.98;;;16.30;99.90;;;;;;5053377;28;20074;-69
2021/07/26 01:23:36;;;;;;;14.20;8.57;;;16.20;99.90;;;;;;5051813;28;20028;-69
2021/07/26 01:26:03;;;;;;;12.57;8.25;;;16.20;99.90;;;;;;5069304;28;20425;-69
2021/07/26 01:28:33;;;;;;;14.02;8.75;;;16.20;99.90;;;;;;5053251;28;20025;-69
2021/07/26 01:30:58;;;;;;;11.38;7.43;;;16.20;99.90;;;;;;5035494;28;20021;-68
2021/07/26 01:33:24;;;;;;;14.88;9.38;;;16.20;99.90;;;;;;5053450;28;20070;-69
2021/07/26 01:35:51;;;;;;;13.32;9.15;;;16.10;99.90;;;;;;5053427;28;20021;-69
2021/07/26 01:38:17;;;;;;;13.00;8.57;;;16.20;99.90;;;;;;5052019;28;20490;-69
2021/07/26 01:40:49;;;;;;;10.25;7.95;;;16.10;99.90;;;;;;5053425;28;20021;-69
2021/07/26 01:43:15;;;;;;;15.23;7.82;;;16.10;99.90;;;;;;5053379;28;20021;-68
2021/07/26 01:45:41;;;;;;;13.65;8.05;;;16.10;99.90;;;;;;5052802;28;20051;-69
2021/07/26 01:48:31;;;;;;;11.48;8.38;;;16.10;99.90;;;;;;5053352;28;20028;-69
2021/07/26 01:51:01;;;;;;;10.90;7.68;;;16.10;99.90;;;;;;5052811;28;20067;-69
2021/07/26 01:53:27;;;;;;;18.35;8.57;;;16.10;99.90;;;;;;5051469;28;20041;-69
2021/07/26 01:55:54;;;;;;;17.05;8.27;;;16.10;99.90;;;;;;5053301;28;20099;-69
2021/07/26 01:58:20;;;;;;;12.68;8.70;;;16.00;99.90;;;;;;5053233;28;20017;-69
2021/07/26 02:00:45;;;;;;;11.57;7.95;;;16.00;99.90;;;;;;5055577;28;20039;-69
2021/07/26 02:03:11;;;;;;;12.32;8.25;;;15.90;99.90;;;;;;5056919;28;20067;-69
2021/07/26 02:05:36;;;;;;;15.30;7.88;;;15.90;99.90;;;;;;5056579;28;20032;-68
2021/07/26 02:08:02;;;;;;;10.00;7.80;;;15.90;99.90;;;;;;5055366;28;20096;-69
2021/07/26 02:10:27;;;;;;;10.80;7.75;;;15.90;99.90;;;;;;5054948;28;20039;-69
2021/07/26 02:12:53;;;;;;;12.82;8.32;;;15.80;99.90;;;;;;5055470;28;20485;-69
2021/07/26 02:15:18;;;;;;;14.88;8.43;;;15.90;99.90;;;;;;5055105;28;20021;-69
2021/07/26 02:17:44;;;;;;;14.82;8.52;;;15.80;99.90;;;;;;5056357;28;20036;-69
2021/07/26 02:20:10;;;;;;;11.45;7.90;;;15.80;99.90;;;;;;5055321;28;20021;-69
2021/07/26 02:22:35;;;;;;;15.50;9.40;;;15.80;99.90;;;;;;5056533;28;20104;-69
2021/07/26 02:25:01;;;;;;;15.23;7.72;;;15.70;99.90;;;;;;5056453;28;20415;-68
2021/07/26 02:27:26;;;;;;;13.18;8.50;;;15.70;99.90;;;;;;5054621;28;20399;-68
2021/07/26 02:29:52;;;;;;;14.50;9.40;;;15.70;99.90;;;;;;5056382;28;20029;-68
2021/07/26 02:32:17;;;;;;;12.45;8.55;;;15.70;99.90;;;;;;5056275;28;20040;-68
2021/07/26 02:34:43;;;;;;;13.75;8.93;;;15.70;99.90;;;;;;5056299;28;20059;-68
2021/07/26 02:37:09;;;;;;;14.70;8.40;;;15.70;99.90;;;;;;5056233;28;20116;-69
2021/07/26 02:39:34;;;;;;;14.98;8.10;;;15.70;99.90;;;;;;5056210;28;20025;-68
2021/07/26 02:42:00;;;;;;;12.55;7.72;;;15.80;99.90;;;;;;5056178;28;20370;-68
2021/07/26 02:44:25;;;;;;;12.88;8.57;;;15.80;99.90;;;;;;5056133;28;20060;-69
2021/07/26 02:46:51;;;;;;;18.73;11.13;;;15.80;99.90;;;;;;5055490;28;20036;-69
2021/07/26 02:49:16;;;;;;;14.70;9.27;;;15.80;99.90;;;;;;5056271;28;20110;-68
2021/07/26 02:51:42;;;;;;;11.63;8.20;;;15.70;99.90;;;;;;5055741;28;20052;-68
2021/07/26 02:54:07;;;;;;;13.05;8.75;;;15.80;99.90;;;;;;5055820;28;20099;-68
2021/07/26 02:56:33;;;;;;;14.65;9.93;;;15.80;99.90;;;;;;5054469;28;20045;-69
2021/07/26 02:58:58;;;;;;;13.43;10.43;;;15.80;99.90;;;;;;5055294;28;20029;-69
2021/07/26 03:01:24;;;;;;;13.85;8.75;;;15.80;99.90;;;;;;5055795;28;20029;-68
2021/07/26 03:03:49;;;;;;;15.77;9.63;;;15.80;99.90;;;;;;5055471;28;20021;-68
2021/07/26 03:06:16;;;;;;;12.98;9.10;;;15.80;99.90;;;;;;5055697;28;20087;-68
2021/07/26 03:08:42;;;;;;;16.10;9.15;;;15.80;99.90;;;;;;5055670;28;20025;-68
2021/07/26 03:11:11;;;;;;;13.18;9.48;;;15.80;99.90;;;;;;5055576;28;20060;-68
2021/07/26 03:13:39;;;;;;;18.45;9.93;;;15.70;99.90;;;;;;5054968;28;20466;-68
2021/07/26 03:16:06;;;;;;;12.93;9.70;;;15.70;99.90;;;;;;5055514;28;20017;-69
2021/07/26 03:18:32;;;;;;;14.68;9.52;;;15.70;99.90;;;;;;5055437;28;20410;-69
2021/07/26 03:20:57;;;;;;;12.98;9.18;;;15.70;99.90;;;;;;5055431;28;20087;-69
2021/07/26 03:23:23;;;;;;;14.70;9.52;;;15.70;99.90;;;;;;5055116;28;20099;-68
2021/07/26 03:25:48;;;;;;;15.00;8.88;;;15.70;99.90;;;;;;5055298;28;20498;-69
2021/07/26 03:28:13;;;;;;;13.15;9.43;;;15.60;99.90;;;;;;5054695;28;20074;-68
2021/07/26 03:30:39;;;;;;;14.98;9.13;;;15.60;99.90;;;;;;5054051;28;20048;-68
2021/07/26 03:33:05;;;;;;;16.38;10.13;;;15.60;99.90;;;;;;5055060;28;20376;-68
2021/07/26 03:35:31;;;;;;;16.02;9.05;;;15.70;99.90;;;;;;5055103;28;20021;-69
2021/07/26 03:37:57;;;;;;;16.52;9.70;;;15.60;99.90;;;;;;5053684;28;20028;-69
2021/07/26 03:40:23;;;;;;;18.00;10.38;;;15.60;99.90;;;;;;5054718;28;20021;-69
2021/07/26 03:42:49;;;;;;;16.58;10.77;;;15.60;99.90;;;;;;5054960;28;20027;-68
2021/07/26 03:45:16;;;;;;;13.80;9.40;;;15.60;99.90;;;;;;5054938;28;20113;-68
2021/07/26 03:47:43;;;;;;;13.70;9.07;;;15.60;99.90;;;;;;5053701;28;20052;-69
2021/07/26 03:50:10;;;;;;;12.70;8.18;;;15.60;99.90;;;;;;5052990;28;20116;-68
2021/07/26 03:52:53;;;;;;;13.52;8.95;;;15.60;99.90;;;;;;5054186;28;20047;-69
2021/07/26 03:55:24;;;;;;;13.82;8.73;;;15.60;99.90;;;;;;5052912;28;20028;-68
2021/07/26 03:57:50;;;;;;;16.42;9.50;;;15.60;99.90;;;;;;5054481;28;20099;-68
2021/07/26 04:00:17;;;;;;;17.92;9.85;;;15.60;99.90;;;;;;5054362;28;20482;-68
2021/07/26 04:02:48;;;;;;;13.25;9.95;;;15.50;99.90;;;;;;5054615;28;20072;-69
2021/07/26 04:05:21;;;;;;;18.15;9.68;;;15.60;99.90;;;;;;5053484;28;20037;-69
2021/07/26 04:07:47;;;;;;;16.42;9.73;;;15.60;99.90;;;;;;5054590;28;20021;-68
2021/07/26 04:10:14;;;;;;;12.02;9.05;;;15.60;99.90;;;;;;5053949;28;20111;-68
2021/07/26 04:12:42;;;;;;;14.52;10.20;;;15.60;99.90;;;;;;5053180;28;20025;-68
2021/07/26 04:15:10;;;;;;;15.93;9.75;;;15.60;99.90;;;;;;5054442;28;20107;-68
2021/07/26 04:17:36;;;;;;;15.65;9.73;;;15.60;99.90;;;;;;5052914;28;20082;-68
2021/07/26 04:20:03;;;;;;;15.90;10.00;;;15.70;99.90;;;;;;5054055;28;20021;-68
2021/07/26 04:22:29;;;;;;;14.40;9.77;;;15.70;99.90;;;;;;5053358;28;20033;-68
2021/07/26 04:24:55;;;;;;;10.63;9.02;;;15.80;99.90;;;;;;5035970;28;20029;-68
2021/07/26 04:27:20;;;;;;;15.88;9.32;;;15.80;99.90;;;;;;5054213;28;20150;-69
2021/07/26 04:29:46;;;;;;;13.27;9.55;;;15.90;99.90;;;;;;5053934;28;20470;-68
2021/07/26 04:32:12;;;;;;;12.95;8.68;;;15.90;99.90;;;;;;5054070;28;20032;-68
2021/07/26 04:34:37;;;;;;;12.93;8.18;;;16.10;99.90;;;;;;5053870;28;20028;-68
2021/07/26 04:37:03;;;;;;;12.50;8.25;;;16.30;99.90;;;;;;5054134;28;20021;-69
2021/07/26 04:39:28;;;;;;;12.30;8.40;;;16.50;99.90;;;;;;5053704;28;20371;-69
2021/07/26 04:41:54;;;;;;;12.75;8.00;;;16.70;99.90;;;;;;5053995;28;20130;-69
2021/07/26 04:44:20;;;;;;;9.23;6.63;;;17.10;99.90;;;;;;5053407;28;20025;-69
2021/07/26 04:46:45;;;;;;;9.13;6.30;;;17.00;99.90;;;;;;5052160;28;20029;-69
2021/07/26 04:49:11;;;;;;;9.27;6.57;;;17.00;99.90;;;;;;5052174;28;20029;-69
2021/07/26 04:51:36;;;;;;;14.73;7.35;;;17.10;99.90;;;;;;5053631;28;20029;-69
2021/07/26 04:54:02;;;;;;;9.25;7.45;;;17.20;99.90;;;;;;5053485;28;20112;-69
2021/07/26 04:56:27;;;;;;;10.35;6.93;;;17.30;99.90;;;;;;5053834;28;20060;-68
2021/07/26 04:58:53;;;;;;;12.73;7.78;;;17.20;99.90;;;;;;5053834;28;20025;-69
2021/07/26 05:01:18;;;;;;;12.60;7.80;;;17.10;99.90;;;;;;5053785;28;20431;-69
2021/07/26 05:03:44;;;;;;;11.55;7.78;;;17.20;99.90;;;;;;5053792;28;20081;-69
2021/07/26 05:06:09;;;;;;;9.98;7.20;;;17.30;99.90;;;;;;5051966;28;20394;-69
2021/07/26 05:08:35;;;;;;;12.18;7.43;;;17.30;99.90;;;;;;5053703;28;20036;-69
2021/07/26 05:11:01;;;;;;;14.05;8.35;;;17.20;99.90;;;;;;5053411;28;20025;-69
2021/07/26 05:13:26;;;;;;;13.00;8.50;;;17.10;99.90;;;;;;5053323;28;20126;-69
2021/07/26 05:15:52;;;;;;;10.82;8.02;;;17.10;99.90;;;;;;5053605;28;20028;-69
2021/07/26 05:18:18;;;;;;;16.00;8.20;;;17.10;99.90;;;;;;5053587;28;20116;-69
2021/07/26 05:20:43;;;;;;;13.25;8.90;;;17.10;99.90;;;;;;5053600;28;20021;-69
2021/07/26 05:23:10;;;;;;;13.50;8.45;;;17.10;99.90;;;;;;5053553;28;20032;-69
2021/07/26 05:25:36;;;;;;;12.38;8.40;;;17.20;99.90;;;;;;5053214;28;20463;-69
2021/07/26 05:28:02;;;;;;;13.52;8.15;;;17.20;99.90;;;;;;5052098;28;20082;-68
2021/07/26 05:30:27;;;;;;;14.13;8.70;;;17.20;99.90;;;;;;5053510;28;20434;-69
2021/07/26 05:32:53;;;;;;;11.32;8.50;;;17.10;99.90;;;;;;5053415;28;20107;-68
2021/07/26 05:35:20;;;;;;;12.80;8.50;;;17.40;99.90;;;;;;5055212;28;20017;-68
2021/07/26 05:37:45;;;;;;;14.88;8.23;;;17.60;99.90;;;;;;5057289;28;20021;-69
2021/07/26 05:40:11;;;;;;;13.00;6.85;;;18.00;99.90;;;;;;5056713;28;20028;-69
2021/07/26 05:42:37;;;;;;;7.57;6.32;;;18.70;99.90;;;;;;5057204;28;20035;-70
2021/07/26 05:45:04;;;;;;;10.95;6.03;;;19.40;99.90;;;;;;5057173;28;20017;-69
2021/07/26 05:47:30;;;;;;;11.95;7.05;;;19.50;99.90;;;;;;5055623;28;20025;-69
2021/07/26 05:49:56;;;;;;;9.85;6.10;;;19.60;99.90;;;;;;5056891;28;20028;-69
2021/07/26 05:52:22;;;;;;;8.90;6.53;;;19.60;99.90;;;;;;5056513;28;20044;-69
2021/07/26 05:54:47;;;;;;;9.55;6.47;;;19.60;99.90;;;;;;5055815;28;20470;-69
2021/07/26 05:57:15;;;;;;;12.05;6.60;;;19.70;99.90;;;;;;5057008;28;20047;-69
2021/07/26 05:59:43;;;;;;;10.05;6.03;;;20.10;99.90;;;;;;5056672;28;20021;-69
2021/07/26 06:02:09;;;;;;;11.30;5.97;;;20.40;99.90;;;;;;5056483;28;20025;-69
2021/07/26 06:04:34;;;;;;;8.63;5.55;;;20.70;99.90;;;;;;5055001;28;20039;-70
2021/07/26 06:07:00;;;;;;;10.05;6.10;;;21.30;99.90;;;;;;5056687;28;20043;-70
2021/07/26 06:09:26;;;;;;;11.52;6.05;;;22.30;99.90;;;;;;5055722;28;20021;-69
2021/07/26 06:11:52;;;;;;;10.07;6.05;;;22.70;99.90;;;;;;5055930;28;20024;-70
2021/07/26 06:14:19;;;;;;;8.23;5.20;;;23.60;99.90;;;;;;5055499;28;20029;-70
2021/07/26 06:16:46;;;;;;;5.80;5.03;;;24.20;99.90;;;;;;5055025;28;20025;-70
2021/07/26 06:19:13;;;;;;;5.47;4.70;;;25.20;99.90;;;;;;5055359;28;20109;-71
2021/07/26 06:21:40;;;;;;;7.70;5.32;;;25.30;99.90;;;;;;5056443;28;20378;-67
2021/07/26 06:24:06;;;;;;;6.90;5.07;;;25.30;99.90;;;;;;5053693;28;20025;-68
2021/07/26 06:26:31;;;;;;;9.60;5.30;;;26.30;99.90;;;;;;5052062;28;20039;-68
2021/07/26 06:28:57;;;;;;;6.50;5.05;;;26.70;99.90;;;;;;5051333;28;20033;-70
2021/07/26 06:31:22;;;;;;;6.88;4.93;;;27.10;99.90;;;;;;5056125;28;20496;-70
2021/07/26 06:33:48;;;;;;;6.93;4.90;;;27.50;99.90;;;;;;5054928;28;20040;-69
2021/07/26 06:36:14;;;;;;;5.47;4.60;;;27.80;99.90;;;;;;5055228;28;20120;-69
2021/07/26 06:38:39;;;;;;;8.50;4.90;;;27.50;99.90;;;;;;5055767;28;20040;-69
2021/07/26 06:41:06;;;;;;;5.53;4.45;;;27.60;99.90;;;;;;5052862;28;20478;-69
2021/07/26 06:43:32;;;;;;;7.13;4.80;;;28.50;99.90;;;;;;5042577;28;20087;-69
2021/07/26 06:45:57;;;;;;;6.47;4.97;;;27.80;99.90;;;;;;5047111;28;20486;-69
2021/07/26 06:48:24;;;;;;;6.32;4.75;;;28.10;99.90;;;;;;5045574;28;20036;-66
2021/07/26 06:50:50;;;;;;;6.90;4.78;;;27.70;99.90;;;;;;5048869;28;20079;-66
2021/07/26 06:53:16;;;;;;;6.00;4.50;;;28.00;99.90;;;;;;5058334;28;20094;-66
2021/07/26 06:55:42;;;;;;;5.03;4.53;;;28.80;99.90;;;;;;5046158;28;20025;-67
2021/07/26 06:58:07;;;;;;;7.00;4.60;;;28.70;99.90;;;;;;5050381;28;20512;-66
2021/07/26 07:00:34;;;;;;;4.65;4.13;;;28.40;99.90;;;;;;5041506;28;20049;-67
2021/07/26 07:02:59;;;;;;;7.35;4.18;;;28.80;99.90;;;;;;5047007;28;20056;-66
2021/07/26 07:05:25;;;;;;;7.15;4.20;;;28.40;99.90;;;;;;5048138;28;20052;-66
2021/07/26 07:07:51;;;;;;;6.18;4.30;;;28.30;99.90;;;;;;5045543;28;20472;-67
2021/07/26 07:10:16;;;;;;;5.95;4.18;;;28.80;99.90;;;;;;5048282;28;20439;-66
2021/07/26 07:12:42;;;;;;;5.97;4.45;;;28.60;99.90;;;;;;5045438;28;20110;-67
2021/07/26 07:15:08;;;;;;;6.60;4.72;;;28.20;99.90;;;;;;5050584;28;20045;-67
2021/07/26 07:17:34;;;;;;;4.85;3.92;;;28.40;99.90;;;;;;5052667;28;20059;-67
2021/07/26 07:20:00;;;;;;;7.55;4.00;;;28.80;99.90;;;;;;5052969;28;20060;-66
2021/07/26 07:22:25;;;;;;;8.75;3.70;;;29.10;99.90;;;;;;5051357;28;20033;-66
2021/07/26 07:24:51;;;;;;;4.65;3.65;;;28.70;99.90;;;;;;5052724;28;20025;-66
2021/07/26 07:27:17;;;;;;;8.15;3.85;;;28.30;99.90;;;;;;5054227;28;20067;-70
2021/07/26 07:29:42;;;;;;;7.45;4.03;;;28.20;99.90;;;;;;5053880;28;20482;-69
2021/07/26 07:32:12;;;;;;;8.10;3.70;;;28.20;99.90;;;;;;5054341;28;20044;-68
2021/07/26 07:34:39;;;;;;;5.28;4.00;;;28.30;99.90;;;;;;5053278;28;20029;-68
2021/07/26 07:37:06;;;;;;;7.75;3.88;;;28.10;99.90;;;;;;5053397;28;20017;-68
2021/07/26 07:39:31;;;;;;;5.25;3.38;;;27.90;99.90;;;;;;5050432;28;20364;-68
2021/07/26 07:41:57;;;;;;;5.10;3.20;;;27.30;99.90;;;;;;5053556;28;20029;-71
2021/07/26 07:44:29;;;;;;;5.75;3.83;;;27.50;99.90;;;;;;5043784;28;20520;-68
2021/07/26 07:46:54;;;;;;;4.88;3.20;;;27.70;99.90;;;;;;5052496;28;20051;-68
2021/07/26 07:49:20;;;;;;;6.50;3.47;;;28.00;99.90;;;;;;5051368;28;20032;-68
2021/07/26 07:51:47;;;;;;;5.97;3.42;;;27.50;99.90;;;;;;5053632;28;20045;-69
2021/07/26 07:54:13;;;;;;;6.50;3.33;;;27.60;99.90;;;;;;5043952;28;20028;-68
2021/07/26 07:56:38;;;;;;;3.50;3.20;;;27.50;99.90;;;;;;5053161;28;20047;-71
2021/07/26 07:59:06;;;;;;;4.38;3.50;;;26.70;99.90;;;;;;5053376;28;20486;-70
2021/07/26 08:01:32;;;;;;;3.95;3.13;;;25.60;99.90;;;;;;5050964;28;20386;-70
2021/07/26 08:03:58;;;;;;;3.60;3.10;;;25.20;99.90;;;;;;5063421;28;20099;-70
2021/07/26 08:06:23;;;;;;;4.80;3.42;;;25.20;99.90;;;;;;5034302;28;20029;-70
2021/07/26 08:08:49;;;;;;;5.88;3.92;;;25.50;99.90;;;;;;5048051;28;20025;-70
2021/07/26 08:11:14;;;;;;;3.75;3.13;;;26.10;99.90;;;;;;5053598;28;20374;-70
2021/07/26 08:13:40;;;;;;;4.15;3.25;;;26.50;99.90;;;;;;5046438;28;20033;-70
2021/07/26 08:16:06;;;;;;;3.63;2.97;;;27.00;99.90;;;;;;5052787;28;20025;-69
2021/07/26 08:18:32;;;;;;;5.03;3.03;;;27.50;99.90;;;;;;5052174;28;20017;-68
2021/07/26 08:20:58;;;;;;;4.93;3.10;;;28.10;99.90;;;;;;5051984;28;20063;-68
2021/07/26 08:23:23;;;;;;;7.75;3.42;;;28.60;99.90;;;;;;5050841;28;20051;-68
2021/07/26 08:25:49;;;;;;;4.40;3.45;;;29.10;99.90;;;;;;5053104;28;20478;-68
2021/07/26 08:28:14;;;;;;;4.55;3.38;;;27.70;99.90;;;;;;5052567;28;20040;-67
2021/07/26 08:30:41;;;;;;;5.85;3.10;;;26.90;99.90;;;;;;5052555;28;20029;-67
2021/07/26 08:33:07;;;;;;;4.43;3.40;;;26.20;99.90;;;;;;5051145;28;20154;-66
2021/07/26 08:35:34;;;;;;;5.88;3.20;;;25.80;99.90;;;;;;5037117;28;20059;-67
2021/07/26 08:37:59;;;;;;;5.35;3.00;;;25.60;99.90;;;;;;5033930;28;20026;-66
2021/07/26 08:40:28;;;;;;;5.50;3.20;;;25.80;99.90;;;;;;5051984;28;20028;-66
2021/07/26 08:42:56;;;;;;;5.00;3.30;;;26.60;99.90;;;;;;5052037;28;20379;-67
2021/07/26 08:45:22;;;;;;;4.10;2.75;;;27.90;99.90;;;;;;5053161;28;20029;-67
2021/07/26 08:47:48;;;;;;;4.22;2.88;;;29.30;99.90;;;;;;5049890;28;20036;-67
2021/07/26 08:50:17;;;;;;;5.78;3.03;;;29.50;99.90;;;;;;5041445;28;20029;-67
2021/07/26 08:52:44;;;;;;;2.88;2.67;;;29.20;99.90;;;;;;5030943;28;20050;-67
2021/07/26 08:55:13;;;;;;;6.50;3.00;;;28.60;99.90;;;;;;5042816;28;20074;-67
2021/07/26 08:57:43;;;;;;;6.45;3.38;;;28.70;99.90;;;;;;5051630;28;20017;-67
2021/07/26 09:00:10;;;;;;;5.22;3.30;;;27.90;99.90;;;;;;5034990;28;20030;-66
2021/07/26 09:02:35;;;;;;;3.97;2.90;;;26.70;99.90;;;;;;5035259;28;20030;-66
2021/07/26 09:05:01;;;;;;;6.22;3.40;;;26.30;99.90;;;;;;5049079;28;20025;-66
2021/07/26 09:07:27;;;;;;;5.32;3.25;;;26.40;99.90;;;;;;5052006;28;20044;-66
2021/07/26 09:09:53;;;;;;;5.30;3.38;;;26.00;99.90;;;;;;5054292;28;20082;-66
2021/07/26 09:12:37;;;;;;;4.80;3.20;;;25.90;99.90;;;;;;5057615;28;20029;-66
2021/07/26 09:15:04;;;;;;;3.65;2.88;;;25.80;99.90;;;;;;5056571;28;20540;-66
2021/07/26 09:17:38;;;;;;;4.75;2.63;;;25.60;99.90;;;;;;5057365;28;20028;-66
2021/07/26 09:20:05;;;;;;;4.43;2.67;;;26.10;99.90;;;;;;5053294;28;20082;-66
2021/07/26 09:22:32;;;;;;;4.28;2.70;;;27.20;99.90;;;;;;5057132;28;20028;-66
2021/07/26 09:25:22;;;;;;;2.70;2.38;;;28.20;99.90;;;;;;5046774;28;20036;-66
2021/07/26 09:28:09;;;;;;;5.00;2.65;;;29.20;99.90;;;;;;5056605;28;20534;-67
2021/07/26 09:30:53;;;;;;;3.28;2.60;;;29.40;99.90;;;;;;5047005;28;20033;-67
2021/07/26 09:33:33;;;;;;;3.78;2.58;;;29.50;99.90;;;;;;5052678;28;20371;-67
2021/07/26 09:41:47;;;;;;;3.83;2.63;;;30.10;99.90;;;;;;5110840;27;20432;-65
2021/07/26 09:44:13;;;;;;;2.80;2.25;;;29.50;99.90;;;;;;5081428;28;20095;-65
2021/07/26 09:46:40;;;;;;;4.03;2.25;;;28.10;99.90;;;;;;5086143;28;20021;-65
2021/07/26 09:49:08;;;;;;;3.80;2.88;;;27.20;99.90;;;;;;5090203;28;20027;-65
2021/07/26 09:51:33;;;;;;;4.20;2.60;;;26.40;99.90;;;;;;5087453;28;20473;-65
2021/07/26 09:53:59;;;;;;;2.92;2.60;;;26.90;99.90;;;;;;5090509;28;20128;-65
2021/07/26 09:56:32;;;;;;;2.30;2.10;;;28.00;99.90;;;;;;5089704;28;20024;-65
2021/07/26 09:58:58;;;;;;;;;;;29.00;99.90;;;;;;5089636;28;20030;-65
2021/07/26 10:01:24;;;;;;;;;;;29.30;99.90;;;;;;5090634;28;20002;-66
2021/07/26 10:03:51;;;;;;;;;;;29.00;99.90;;;;;;5089346;28;19955;-65
2021/07/26 10:06:18;;;;;;;;;;;28.60;99.90;;;;;;5090256;28;19912;-65
2021/07/26 10:08:44;;;;;;;;;;;28.50;99.90;;;;;;5089493;28;19908;-65
2021/07/26 10:11:09;;;;;;;;;;;28.40;99.90;;;;;;5090528;28;19904;-65
2021/07/26 10:13:38;;;;;;;;;;;27.70;99.90;;;;;;5090470;28;19908;-66
2021/07/26 10:16:04;;;;;;;;;;;27.70;99.90;;;;;;5089934;28;20083;-66
2021/07/26 10:18:29;;;;;;;;;;;28.20;99.90;;;;;;5089747;28;20397;-66
2021/07/26 10:21:04;;;;;;;;;;;28.20;99.90;;;;;;5088971;28;19909;-66
2021/07/26 10:23:39;;;;;;;;;;;28.30;99.90;;;;;;5090189;28;19943;-66
2021/07/26 10:26:07;;;;;;;;;;;28.40;99.90;;;;;;5082208;28;19927;-66
2021/07/26 10:28:34;;;;;;;;;;;28.40;99.90;;;;;;5089887;28;19909;-66
2021/07/26 10:31:00;;;;;;;;;;;28.40;99.90;;;;;;5090264;28;19911;-66
2021/07/26 10:33:29;;;;;;;;;;;28.40;99.90;;;;;;5090669;28;20287;-65
2021/07/26 10:35:56;;;;;;;;;;;29.60;99.90;;;;;;5088576;28;19978;-66
2021/07/26 10:38:41;;;;;;;;;;;29.30;99.90;;;;;;5089997;28;19905;-66
2021/07/26 10:41:07;;;;;;;;;;;29.60;99.90;;;;;;5087842;28;19978;-66
2021/07/26 10:43:52;;;;;;;;;;;29.90;99.90;;;;;;5088893;28;19908;-65
2021/07/26 10:46:18;;;;;;;;;;;29.50;99.90;;;;;;5089025;28;20385;-66
2021/07/26 10:48:49;;;;;;;;;;;29.20;99.90;;;;;;5089472;28;19908;-66
2021/07/26 10:51:35;;;;;;;;;;;28.70;99.90;;;;;;5084254;28;20444;-66
2021/07/26 10:54:00;;;;;;;;;;;27.70;99.90;;;;;;5075593;28;20258;-65
2021/07/26 10:56:26;;;;;;;;;;;27.60;99.90;;;;;;5075803;28;19915;-65
2021/07/26 10:59:06;;;;;;;;;;;27.60;99.90;;;;;;5076370;28;19904;-65
2021/07/26 11:01:34;;;;;;;;;;;28.20;99.90;;;;;;5074631;28;20362;-67
2021/07/26 11:04:00;;;;;;;;;;;28.40;99.90;;;;;;5072966;28;19914;-65
2021/07/26 11:06:43;;;;;;;;;;;28.10;99.90;;;;;;5072955;28;20269;-66
2021/07/26 11:09:32;;;;;;;;;;;28.30;99.90;;;;;;5062129;28;20247;-66
2021/07/26 11:11:58;;;;;;;;;;;28.40;99.90;;;;;;5075772;28;19909;-65
2021/07/26 11:14:24;;;;;;;;;;;28.10;99.90;;;;;;5076277;28;19904;-65
2021/07/26 11:19:29;;;;;;;;;;;27.70;99.90;;;;;;5090502;27;20374;-66
2021/07/26 11:21:54;;;;;;;;;;;27.50;99.90;;;;;;5072312;28;19913;-66
2021/07/26 11:24:40;;;;;;;;;;;27.80;99.90;;;;;;5070997;28;19909;-66
2021/07/26 11:27:06;;;;;;;;;;;27.70;99.90;;;;;;5070707;28;19913;-66
2021/07/26 11:29:31;;;;;;;;;;;27.80;99.90;;;;;;5069574;28;19919;-66
2021/07/26 11:31:57;;;;;;;;;;;27.40;99.90;;;;;;5071784;28;20348;-66
2021/07/26 11:34:27;;;;;;;;;;;27.70;99.90;;;;;;5073779;28;19913;-66
2021/07/26 11:37:08;;;;;;;;;;;28.30;99.90;;;;;;5090485;28;19958;-69
2021/07/26 11:39:54;;;;;;;;;;;28.20;99.90;;;;;;5085498;28;19917;-69
2021/07/26 11:42:36;;;;;;;;;;;28.00;99.90;;;;;;5063280;28;19913;-68
2021/07/26 11:45:05;;;;;;;;;;;28.50;99.90;;;;;;5068077;28;20315;-68
2021/07/26 11:47:44;;;;;;;;;;;28.60;99.90;;;;;;5063227;28;19939;-71
2021/07/26 11:50:11;;;;;;;;;;;28.60;99.90;;;;;;5090267;28;19921;-71
2021/07/26 11:52:37;;;;;;;;;;;28.40;99.90;;;;;;5064565;28;19936;-72
2021/07/26 11:55:17;;;;;;;;;;;28.50;99.90;;;;;;5057604;28;19920;-71
2021/07/26 11:58:03;;;;;;;;;;;28.20;99.90;;;;;;5053708;28;19967;-66
2021/07/26 12:00:30;;;;;;;;;;;27.80;99.90;;;;;;5062665;28;19990;-67
2021/07/26 12:02:56;;;;;;;;;;;27.80;99.90;;;;;;5078176;28;19913;-67
2021/07/26 12:05:37;;;;;;;;;;;27.70;99.90;;;;;;5069717;28;20335;-67
2021/07/26 12:08:18;;;;;;;;;;;27.20;99.90;;;;;;5081241;28;19913;-67
2021/07/26 12:10:44;;;;;;;;;;;27.20;99.90;;;;;;5070167;28;19913;-67
2021/07/26 12:13:12;;;;;;;;;;;27.40;99.90;;;;;;5086817;28;19917;-70
2021/07/26 12:15:38;;;;;;;;;;;27.50;99.90;;;;;;5093220;28;19913;-70
2021/07/26 12:18:05;;;;;;;;;;;27.50;99.90;;;;;;5059917;28;20053;-70
2021/07/26 12:20:32;;;;;;;;;;;27.70;99.90;;;;;;5082723;28;19913;-70
2021/07/26 12:23:08;;;;;;;;;;;27.80;99.90;;;;;;5077163;28;19908;-68
2021/07/26 12:25:41;;;;;;;;;;;27.70;99.90;;;;;;5090438;28;19912;-70
2021/07/26 12:28:06;;;;;;;;;;;27.60;99.90;;;;;;5088122;28;20329;-70
2021/07/26 12:30:34;;;;;;;;;;;27.40;99.90;;;;;;5073859;28;19912;-70
2021/07/26 12:32:59;;;;;;;;;;;27.00;99.90;;;;;;5058287;28;19947;-70
2021/07/26 12:35:26;;;;;;;;;;;27.20;99.90;;;;;;5057440;28;19920;-70
2021/07/26 12:38:11;;;;;;;;;;;27.30;99.90;;;;;;5055033;28;20418;-70
2021/07/26 12:40:38;;;;;;;;;;;27.40;99.90;;;;;;5086692;28;19923;-70
2021/07/26 12:43:05;;;;;;;;;;;27.20;99.90;;;;;;5068835;28;19913;-70
2021/07/26 12:45:31;;;;;;;;;;;26.90;99.90;;;;;;5072854;28;20009;-70
2021/07/26 12:47:58;;;;;;;;;;;27.10;99.90;;;;;;5078420;28;20394;-70
2021/07/26 12:50:23;;;;;;;;;;;27.50;99.90;;;;;;5055532;28;19908;-70
2021/07/26 12:52:49;;;;;;;;;;;27.20;99.90;;;;;;5058279;28;19999;-70
2021/07/26 12:55:15;;;;;;;;;;;27.20;99.90;;;;;;5075324;28;19954;-70
2021/07/26 12:57:41;;;;;;;;;;;27.10;99.90;;;;;;5075285;28;19913;-70
2021/07/26 13:00:07;;;;;;;;;;;27.50;99.90;;;;;;5056787;28;19919;-70
2021/07/26 13:02:33;;;;;;;;;;;27.60;99.90;;;;;;5055022;28;19955;-67
2021/07/26 13:04:58;;;;;;;;;;;27.40;99.90;;;;;;5073724;28;20015;-66
2021/07/26 13:07:24;;;;;;;;;;;27.00;99.90;;;;;;5074663;28;19938;-67
2021/07/26 13:09:50;;;;;;;;;;;26.60;99.90;;;;;;5064443;28;20431;-67
2021/07/26 13:12:15;;;;;;;;;;;26.50;99.90;;;;;;5086544;28;19916;-67